sensor_id;sensor_type;location;lat;lon;timestamp;P1;durP1;ratioP1;P2;durP2;ratioP2
46633;SDS011;32362;49.986;8.026;2022-12-18T00:24:13;16.83;;;8.63;;
46633;SDS011;32362;49.986;8.026;2022-12-18T00:50:54;14.82;;;8.25;;
46633;SDS011;32362;49.986;8.026;2022-12-18T01:17:35;15.38;;;8.30;;
46633;SDS011;32362;49.986;8.026;2022-12-18T02:38:46;10.95;;;6.80;;
46633;SDS011;32362;49.986;8.026;2022-12-18T03:06:18;12.98;;;6.97;;
46633;SDS011;32362;49.986;8.026;2022-12-18T03:33:05;12.82;;;6.45;;
46633;SDS011;32362;49.986;8.026;2022-12-18T03:59:57;12.68;;;6.72;;
46633;SDS011;32362;49.986;8.026;2022-12-18T04:26:54;10.95;;;5.95;;
46633;SDS011;32362;49.986;8.026;2022-12-18T04:53:41;10.38;;;6.10;;
46633;SDS011;32362;49.986;8.026;2022-12-18T05:20:21;10.97;;;6.43;;
46633;SDS011;32362;49.986;8.026;2022-12-18T05:47:02;15.25;;;6.28;;
46633;SDS011;32362;49.986;8.026;2022-12-18T06:13:44;42.78;;;20.83;;
46633;SDS011;32362;49.986;8.026;2022-12-18T06:40:39;66.65;;;24.73;;
46633;SDS011;32362;49.986;8.026;2022-12-18T07:24:42;34.78;;;14.45;;
46633;SDS011;32362;49.986;8.026;2022-12-18T07:51:22;36.00;;;13.23;;
46633;SDS011;32362;49.986;8.026;2022-12-18T08:18:03;34.03;;;13.25;;
46633;SDS011;32362;49.986;8.026;2022-12-18T08:44:52;37.67;;;13.13;;
46633;SDS011;32362;49.986;8.026;2022-12-18T09:11:40;42.42;;;14.80;;
46633;SDS011;32362;49.986;8.026;2022-12-18T09:38:21;51.67;;;18.60;;
46633;SDS011;32362;49.986;8.026;2022-12-18T10:05:17;40.13;;;15.45;;
46633;SDS011;32362;49.986;8.026;2022-12-18T10:32:31;41.40;;;19.13;;
46633;SDS011;32362;49.986;8.026;2022-12-18T10:59:13;38.43;;;18.70;;
46633;SDS011;32362;49.986;8.026;2022-12-18T11:25:59;34.22;;;17.98;;
46633;SDS011;32362;49.986;8.026;2022-12-18T11:52:42;40.28;;;17.65;;
46633;SDS011;32362;49.986;8.026;2022-12-18T12:19:32;43.22;;;19.35;;
46633;SDS011;32362;49.986;8.026;2022-12-18T12:46:24;39.95;;;17.17;;
46633;SDS011;32362;49.986;8.026;2022-12-18T13:39:49;47.08;;;20.55;;
46633;SDS011;32362;49.986;8.026;2022-12-18T14:06:29;50.60;;;20.67;;
46633;SDS011;32362;49.986;8.026;2022-12-18T14:33:12;52.65;;;20.77;;
46633;SDS011;32362;49.986;8.026;2022-12-18T15:00:03;53.65;;;20.77;;
46633;SDS011;32362;49.986;8.026;2022-12-18T15:26:54;55.03;;;18.98;;
46633;SDS011;32362;49.986;8.026;2022-12-18T15:53:35;57.08;;;19.25;;
46633;SDS011;32362;49.986;8.026;2022-12-18T16:20:16;59.00;;;20.30;;
46633;SDS011;32362;49.986;8.026;2022-12-18T16:46:59;58.45;;;19.48;;
46633;SDS011;32362;49.986;8.026;2022-12-18T17:13:41;55.28;;;17.30;;
46633;SDS011;32362;49.986;8.026;2022-12-18T17:40:22;61.37;;;19.27;;
46633;SDS011;32362;49.986;8.026;2022-12-18T18:07:02;57.43;;;18.03;;
46633;SDS011;32362;49.986;8.026;2022-12-18T18:33:44;53.85;;;18.00;;
46633;SDS011;32362;49.986;8.026;2022-12-18T19:00:25;55.10;;;18.60;;
46633;SDS011;32362;49.986;8.026;2022-12-18T19:27:05;58.87;;;19.13;;
46633;SDS011;32362;49.986;8.026;2022-12-18T19:53:46;60.00;;;18.67;;
46633;SDS011;32362;49.986;8.026;2022-12-18T20:20:27;43.08;;;13.90;;
46633;SDS011;32362;49.986;8.026;2022-12-18T20:47:08;54.47;;;17.87;;
46633;SDS011;32362;49.986;8.026;2022-12-18T21:13:48;56.63;;;19.27;;
46633;SDS011;32362;49.986;8.026;2022-12-18T21:40:29;51.80;;;17.80;;
46633;SDS011;32362;49.986;8.026;2022-12-18T22:07:09;59.77;;;18.67;;
46633;SDS011;32362;49.986;8.026;2022-12-18T22:33:50;57.95;;;18.70;;
46633;SDS011;32362;49.986;8.026;2022-12-18T23:00:31;49.57;;;18.63;;
46633;SDS011;32362;49.986;8.026;2022-12-18T23:27:11;56.57;;;20.33;;
46633;SDS011;32362;49.986;8.026;2022-12-18T23:53:53;51.38;;;18.77;;
